Time;durP1;ratioP1;P1;durP2;ratioP2;P2;SDS_P1;SDS_P2;PMS_P1;PMS_P2;Temp;Humidity;BMP_temperature;BMP_pressure;BME280_temperature;BME280_humidity;BME280_pressure;Samples;Min_cycle;Max_cycle;Signal;HPM_P1;HPM_P2
2021/09/10 08:26:13;;;;;;;12.00;3.90;;;22.40;99.90;;;;;;12129958;27;20393;-62
2021/09/10 08:32:02;;;;;;;11.38;3.65;;;23.00;99.90;;;;;;12121682;27;20052;-62
2021/09/10 08:37:49;;;;;;;10.43;3.50;;;23.70;99.90;;;;;;12111669;27;20588;-62
2021/09/10 08:43:46;;;;;;;5.55;2.80;;;24.00;99.90;;;;;;12112701;27;20047;-62
2021/09/10 08:49:34;;;;;;;5.80;2.67;;;24.40;99.90;;;;;;12076941;28;20516;-62
2021/09/10 08:55:21;;;;;;;4.80;2.75;;;24.40;99.90;;;;;;12102258;27;20048;-62
2021/09/10 09:01:10;;;;;;;9.40;2.78;;;24.30;99.90;;;;;;12058777;28;20051;-63
2021/09/10 09:06:58;;;;;;;8.60;2.90;;;24.30;99.90;;;;;;12067014;28;20044;-62
2021/09/10 09:12:45;;;;;;;6.30;3.22;;;24.60;99.90;;;;;;12106034;27;20381;-61
2021/09/10 09:18:41;;;;;;;9.15;3.08;;;24.50;99.90;;;;;;12105407;27;20066;-63
2021/09/10 09:24:28;;;;;;;6.75;2.92;;;24.30;99.90;;;;;;12089586;27;20040;-62
2021/09/10 09:30:15;;;;;;;6.07;2.60;;;24.60;99.90;;;;;;12073964;28;20044;-63
2021/09/10 09:36:05;;;;;;;7.88;3.03;;;24.60;99.90;;;;;;12077526;27;20048;-63
2021/09/10 09:41:52;;;;;;;4.40;2.50;;;24.80;99.90;;;;;;12081597;28;20049;-63
2021/09/10 09:47:40;;;;;;;7.25;2.97;;;24.70;99.90;;;;;;12037817;28;20044;-63
2021/09/10 09:59:46;;;;;;;4.60;2.28;;;24.60;99.90;;;;;;12080308;27;20040;-63
2021/09/10 10:05:45;;;;;;;5.55;2.60;;;24.90;99.90;;;;;;12068196;28;20072;-64
2021/09/10 10:11:41;;;;;;;5.05;2.47;;;25.10;99.90;;;;;;12066002;28;20109;-63
2021/09/10 10:17:37;;;;;;;5.70;2.95;;;25.00;99.90;;;;;;12059978;28;20471;-63
2021/09/10 10:23:59;;;;;;;3.75;2.28;;;25.00;99.90;;;;;;12071420;28;20044;-63
2021/09/10 10:29:47;;;;;;;9.63;2.22;;;24.90;99.90;;;;;;12065585;28;20056;-63
2021/09/10 10:35:43;;;;;;;4.68;2.25;;;25.20;99.90;;;;;;12071772;28;20063;-64
2021/09/10 10:41:45;;;;;;;5.53;2.53;;;25.50;99.80;;;;;;12069531;28;20603;-64
2021/09/10 10:47:35;;;;;;;5.68;2.20;;;25.40;98.50;;;;;;12071834;28;20198;-63
2021/09/10 10:53:22;;;;;;;4.35;2.20;;;25.70;98.20;;;;;;12088371;28;20045;-62
2021/09/10 10:59:33;;;;;;;5.75;2.30;;;25.60;97.20;;;;;;12083242;27;20048;-63
2021/09/10 11:05:26;;;;;;;4.22;2.22;;;25.60;97.50;;;;;;12063133;27;20053;-63
2021/09/10 11:11:15;;;;;;;5.70;2.38;;;26.20;97.70;;;;;;12065786;28;20037;-63
2021/09/10 11:23:47;;;;;;;13.35;3.85;;;25.70;99.50;;;;;;12075735;27;20135;-62
2021/09/10 11:29:38;;;;;;;7.35;3.53;;;24.50;99.90;;;;;;12051759;28;20052;-62
2021/09/10 11:35:26;;;;;;;10.35;4.20;;;24.30;99.90;;;;;;12087453;28;20048;-62
2021/09/10 11:41:15;;;;;;;6.57;3.53;;;24.50;99.90;;;;;;12087739;27;20062;-63
2021/09/10 11:47:04;;;;;;;6.22;3.40;;;24.30;99.90;;;;;;12056096;28;20471;-63
2021/09/10 11:52:51;;;;;;;5.82;3.40;;;24.40;99.90;;;;;;12031615;28;20055;-64
2021/09/10 11:58:41;;;;;;;6.63;3.10;;;24.60;99.90;;;;;;12054747;28;20055;-63
2021/09/10 12:04:33;;;;;;;4.18;2.60;;;24.70;99.90;;;;;;12078097;28;20048;-62
2021/09/10 12:10:30;;;;;;;5.88;2.70;;;24.80;99.90;;;;;;12022647;28;20053;-62
2021/09/10 12:16:18;;;;;;;5.22;2.90;;;24.80;99.90;;;;;;12072849;28;20506;-64
2021/09/10 12:22:41;;;;;;;7.13;3.35;;;24.60;99.90;;;;;;12075441;27;20055;-62
2021/09/10 12:28:41;;;;;;;6.13;2.70;;;24.50;99.90;;;;;;12048112;28;20036;-64
2021/09/10 12:34:29;;;;;;;6.20;2.97;;;24.60;99.90;;;;;;12076271;28;20053;-63
2021/09/10 12:40:16;;;;;;;4.85;2.92;;;24.80;99.90;;;;;;12045899;28;20490;-63
2021/09/10 12:46:03;;;;;;;7.72;3.38;;;25.10;99.90;;;;;;12070866;28;20224;-63
2021/09/10 12:51:52;;;;;;;16.48;5.00;;;25.30;99.90;;;;;;12043102;28;20531;-63
2021/09/10 12:57:39;;;;;;;17.75;5.28;;;25.30;99.90;;;;;;12059980;28;20153;-62
2021/09/10 13:03:26;;;;;;;23.70;6.10;;;25.30;99.90;;;;;;12066108;28;20048;-63
2021/09/10 13:09:15;;;;;;;12.75;4.10;;;25.20;99.90;;;;;;12071824;28;20044;-63
2021/09/10 13:15:02;;;;;;;13.00;3.90;;;24.70;99.90;;;;;;12076728;28;20150;-63
2021/09/10 13:20:49;;;;;;;7.97;3.28;;;24.00;99.90;;;;;;12080545;28;20040;-63
2021/09/10 13:26:37;;;;;;;5.90;2.85;;;24.40;99.90;;;;;;12077333;28;20044;-63
2021/09/10 13:32:25;;;;;;;5.50;2.78;;;24.50;99.90;;;;;;12077228;28;20064;-63
2021/09/10 13:38:12;;;;;;;6.13;2.53;;;24.90;99.90;;;;;;12080721;28;20080;-63
2021/09/10 13:44:00;;;;;;;4.65;2.75;;;25.50;99.90;;;;;;12080389;28;20063;-63
2021/09/10 13:49:47;;;;;;;3.05;2.03;;;25.90;99.90;;;;;;12079518;27;20143;-63
2021/09/10 13:55:36;;;;;;;5.00;2.30;;;26.20;99.90;;;;;;12079482;28;20064;-63
2021/09/10 14:01:24;;;;;;;7.18;2.17;;;26.40;99.90;;;;;;12077018;28;20076;-62
2021/09/10 14:07:11;;;;;;;5.65;2.78;;;26.50;99.90;;;;;;12053330;28;20533;-62
2021/09/10 14:12:58;;;;;;;6.22;2.60;;;26.60;99.90;;;;;;12048664;28;20064;-63
2021/09/10 14:18:46;;;;;;;6.43;2.58;;;26.30;99.90;;;;;;12075395;28;20071;-62
2021/09/10 14:24:33;;;;;;;3.70;2.50;;;26.00;99.90;;;;;;12080822;28;20040;-62
2021/09/10 14:30:20;;;;;;;7.90;2.78;;;25.90;99.90;;;;;;12090321;28;20044;-62
2021/09/10 14:36:09;;;;;;;7.90;2.80;;;25.70;99.90;;;;;;12090772;27;20419;-63
2021/09/10 14:41:56;;;;;;;3.47;2.28;;;25.80;99.90;;;;;;12090655;27;20495;-63
2021/09/10 14:47:43;;;;;;;6.88;2.38;;;26.00;99.90;;;;;;12053846;28;20202;-63
2021/09/10 14:53:32;;;;;;;3.67;2.47;;;26.00;99.90;;;;;;12073738;28;20201;-63
2021/09/10 14:59:25;;;;;;;5.30;2.65;;;26.20;99.90;;;;;;12076009;28;20140;-63
2021/09/10 15:05:12;;;;;;;4.03;2.25;;;26.40;99.90;;;;;;12075999;28;20090;-63
2021/09/10 15:11:01;;;;;;;3.17;2.00;;;26.80;99.90;;;;;;12077032;28;20089;-63
2021/09/10 15:16:48;;;;;;;4.20;2.15;;;26.80;99.90;;;;;;12048771;28;20202;-63
2021/09/10 15:22:35;;;;;;;3.35;1.92;;;26.60;99.90;;;;;;12075000;28;20076;-63
2021/09/10 15:28:23;;;;;;;3.92;2.25;;;26.40;99.90;;;;;;12025195;28;20045;-63
2021/09/10 15:34:10;;;;;;;3.88;2.88;;;26.40;99.90;;;;;;12052165;28;20053;-63
2021/09/10 15:39:57;;;;;;;5.70;2.42;;;26.20;99.90;;;;;;12054949;27;20052;-63
2021/09/10 15:45:48;;;;;;;4.90;2.03;;;26.20;99.90;;;;;;12042670;28;21472;-62
2021/09/10 15:51:35;;;;;;;5.80;2.63;;;26.00;99.90;;;;;;12032408;28;20516;-63
2021/09/10 15:57:22;;;;;;;6.35;2.65;;;25.70;99.90;;;;;;12043937;28;20098;-63
2021/09/10 16:03:12;;;;;;;5.07;2.85;;;25.60;99.90;;;;;;12057428;28;21422;-63
2021/09/10 16:08:59;;;;;;;6.28;3.08;;;25.30;99.90;;;;;;12029174;28;20068;-63
2021/09/10 16:14:46;;;;;;;8.00;2.90;;;25.30;99.90;;;;;;12059065;28;20150;-62
2021/09/10 16:20:35;;;;;;;7.45;3.03;;;25.40;99.90;;;;;;12075250;27;20533;-63
2021/09/10 16:26:22;;;;;;;7.68;3.25;;;25.40;99.90;;;;;;12064435;28;20144;-64
2021/09/10 16:32:09;;;;;;;5.13;2.50;;;25.90;99.90;;;;;;12023804;28;20068;-63
2021/09/10 16:37:57;;;;;;;5.82;2.80;;;26.80;99.90;;;;;;12044033;28;20139;-63
2021/09/10 16:43:44;;;;;;;7.22;2.67;;;27.00;99.90;;;;;;12021777;28;20427;-64
2021/09/10 16:49:31;;;;;;;8.15;2.78;;;26.40;99.90;;;;;;12052166;28;20139;-63
2021/09/10 16:55:20;;;;;;;9.18;2.80;;;25.90;99.90;;;;;;12056463;28;20183;-63
2021/09/10 17:01:08;;;;;;;5.00;3.10;;;25.50;99.90;;;;;;12056872;28;20641;-64
2021/09/10 17:06:57;;;;;;;5.72;2.38;;;25.30;99.90;;;;;;12038341;28;20036;-64
2021/09/10 17:12:46;;;;;;;12.40;2.90;;;25.10;99.90;;;;;;12055444;28;20120;-64
2021/09/10 17:18:34;;;;;;;4.15;2.40;;;25.00;99.90;;;;;;12033525;28;20524;-63
2021/09/10 17:24:22;;;;;;;3.63;2.40;;;24.80;99.90;;;;;;12050355;28;20124;-64
2021/09/10 17:30:11;;;;;;;4.00;2.33;;;24.80;99.90;;;;;;12082614;27;20079;-63
2021/09/10 17:35:58;;;;;;;5.28;2.30;;;24.70;99.90;;;;;;12084376;27;20595;-64
2021/09/10 17:41:45;;;;;;;5.78;3.08;;;24.60;99.90;;;;;;12081545;28;20052;-63
2021/09/10 17:47:33;;;;;;;5.72;2.60;;;24.70;99.90;;;;;;12076047;28;20047;-63
2021/09/10 17:53:22;;;;;;;2.30;1.95;;;24.70;99.90;;;;;;12077730;28;20056;-63
2021/09/10 17:59:09;;;;;;;6.28;2.50;;;24.50;99.90;;;;;;12041376;28;20055;-64
2021/09/10 18:04:57;;;;;;;3.10;2.00;;;24.40;99.90;;;;;;12057013;28;20051;-63
2021/09/10 18:10:44;;;;;;;7.13;2.30;;;24.50;99.90;;;;;;12060175;27;20048;-64
2021/09/10 18:16:31;;;;;;;2.83;2.10;;;24.40;99.90;;;;;;12056709;27;20123;-63
2021/09/10 18:22:19;;;;;;;4.57;1.40;;;24.20;99.90;;;;;;12019580;28;20061;-63
2021/09/10 18:28:06;;;;;;;2.35;1.63;;;24.00;99.90;;;;;;12082635;27;20897;-63
2021/09/10 18:33:53;;;;;;;1.40;1.30;;;23.90;99.90;;;;;;12064644;28;20423;-63
2021/09/10 18:39:41;;;;;;;1.65;1.20;;;23.40;99.90;;;;;;12075086;28;20048;-61
2021/09/10 18:45:28;;;;;;;4.18;1.10;;;23.30;99.90;;;;;;12095778;28;20768;-62
2021/09/10 18:51:15;;;;;;;1.98;1.23;;;23.30;99.90;;;;;;12091633;28;20052;-63
2021/09/10 18:57:08;;;;;;;2.33;1.30;;;23.30;99.90;;;;;;12088962;27;20048;-63
2021/09/10 19:02:55;;;;;;;4.27;1.50;;;23.30;99.90;;;;;;12059559;28;20412;-63
2021/09/10 19:08:42;;;;;;;2.20;1.55;;;23.30;99.90;;;;;;12094492;28;20044;-63
2021/09/10 19:14:31;;;;;;;2.50;1.23;;;23.20;99.90;;;;;;12096642;27;20138;-63
2021/09/10 19:20:18;;;;;;;1.63;1.35;;;23.10;99.90;;;;;;12094886;27;20139;-62
2021/09/10 19:26:05;;;;;;;3.08;1.77;;;23.00;99.90;;;;;;12069320;27;20044;-64
2021/09/10 19:31:53;;;;;;;4.57;2.05;;;22.90;99.90;;;;;;12093288;27;20056;-63
2021/09/10 19:37:40;;;;;;;3.03;2.10;;;23.00;99.90;;;;;;12091790;28;20047;-62
2021/09/10 19:43:27;;;;;;;3.60;2.50;;;22.90;99.90;;;;;;12087357;28;20056;-62
2021/09/10 19:49:15;;;;;;;2.75;1.90;;;22.90;99.90;;;;;;12067371;28;20059;-63
2021/09/10 19:55:02;;;;;;;3.72;1.83;;;22.90;99.90;;;;;;12062452;28;20060;-63
2021/09/10 20:00:49;;;;;;;3.35;2.15;;;22.90;99.90;;;;;;12049555;28;20052;-62
2021/09/10 20:06:37;;;;;;;3.75;2.13;;;23.00;99.90;;;;;;12024497;28;20053;-63
2021/09/10 20:12:24;;;;;;;4.10;2.20;;;23.00;99.90;;;;;;12062109;27;20044;-62
